createdAt,value
2019-03-23T00:00:21.024Z,8.10
2019-03-23T00:02:49.517Z,8.80
2019-03-23T00:05:17.929Z,8.17
2019-03-23T00:07:46.654Z,8.10
2019-03-23T00:10:15.053Z,7.70
2019-03-23T00:12:43.731Z,7.60
2019-03-23T00:15:12.220Z,9.00
2019-03-23T00:17:40.655Z,9.27
2019-03-23T00:20:09.247Z,9.03
2019-03-23T00:22:37.909Z,7.47
2019-03-23T00:25:06.665Z,7.10
2019-03-23T00:27:35.229Z,7.63
2019-03-23T00:30:06.402Z,8.20
2019-03-23T00:32:34.834Z,7.13
2019-03-23T00:35:03.920Z,7.87
2019-03-23T00:37:32.352Z,8.40
2019-03-23T00:40:00.766Z,7.87
2019-03-23T00:42:29.189Z,7.63
2019-03-23T00:44:57.605Z,7.50
2019-03-23T00:47:26.034Z,7.33
2019-03-23T00:49:54.449Z,6.93
2019-03-23T00:52:22.877Z,7.57
2019-03-23T00:54:51.302Z,7.73
2019-03-23T00:57:19.720Z,7.10
2019-03-23T00:59:48.146Z,7.73
2019-03-23T01:02:16.578Z,7.83
2019-03-23T01:04:45.233Z,7.20
2019-03-23T01:07:13.653Z,7.57
2019-03-23T01:09:42.067Z,6.83
2019-03-23T01:12:10.533Z,7.37
2019-03-23T01:14:39.235Z,7.70
2019-03-23T01:17:07.665Z,7.50
2019-03-23T01:19:36.101Z,7.93
2019-03-23T01:22:04.561Z,7.50
2019-03-23T01:24:32.982Z,7.67
2019-03-23T01:27:01.409Z,6.87
2019-03-23T01:29:29.821Z,7.50
2019-03-23T01:31:58.226Z,7.03
2019-03-23T01:34:26.661Z,7.23
2019-03-23T01:37:02.503Z,7.80
2019-03-23T01:39:25.469Z,7.57
2019-03-23T01:41:53.882Z,8.00
2019-03-23T01:44:22.558Z,8.17
2019-03-23T01:46:50.973Z,9.27
2019-03-23T01:49:19.392Z,9.83
2019-03-23T01:51:47.869Z,8.57
2019-03-23T01:54:16.281Z,7.53
2019-03-23T01:56:44.696Z,8.20
2019-03-23T01:59:13.117Z,8.47
2019-03-23T02:01:41.537Z,7.97
2019-03-23T02:04:09.982Z,14.60
2019-03-23T02:06:38.649Z,17.17
2019-03-23T02:09:07.581Z,17.27
2019-03-23T02:11:36.006Z,14.40
2019-03-23T02:14:04.435Z,10.73
2019-03-23T02:16:32.846Z,9.00
2019-03-23T02:19:01.521Z,8.60
2019-03-23T02:21:29.929Z,9.40
2019-03-23T02:23:58.604Z,8.97
2019-03-23T02:26:27.020Z,9.90
2019-03-23T02:28:55.478Z,8.10
2019-03-23T02:31:23.899Z,7.60
2019-03-23T02:33:52.330Z,8.67
2019-03-23T02:36:20.734Z,8.27
2019-03-23T02:38:49.166Z,8.10
2019-03-23T02:41:17.596Z,8.50
2019-03-23T02:43:46.061Z,8.27
2019-03-23T02:46:14.478Z,8.70
2019-03-23T02:48:42.896Z,9.13
2019-03-23T02:51:11.322Z,8.33
2019-03-23T02:53:39.752Z,8.07
2019-03-23T02:56:08.165Z,9.00
2019-03-23T02:58:36.837Z,8.43
2019-03-23T03:01:05.258Z,8.37
2019-03-23T03:03:33.686Z,8.60
2019-03-23T03:06:02.102Z,9.50
2019-03-23T03:08:30.529Z,8.70
2019-03-23T03:10:58.958Z,8.60
2019-03-23T03:13:27.394Z,6.57
2019-03-23T03:15:55.804Z,7.93
2019-03-23T03:18:24.235Z,7.93
2019-03-23T03:20:52.713Z,8.50
2019-03-23T03:23:21.248Z,7.37
2019-03-23T03:25:49.769Z,7.87
2019-03-23T03:28:18.507Z,7.90
2019-03-23T03:30:46.937Z,7.93
2019-03-23T03:33:15.385Z,7.83
2019-03-23T03:35:43.844Z,7.00
2019-03-23T03:38:12.263Z,7.50
2019-03-23T03:40:40.915Z,7.17
2019-03-23T03:43:09.328Z,6.73
2019-03-23T03:45:37.869Z,6.70
2019-03-23T03:48:06.614Z,6.87
2019-03-23T03:50:35.034Z,6.93
2019-03-23T03:53:03.694Z,7.40
2019-03-23T03:55:32.127Z,6.73
2019-03-23T03:58:00.550Z,6.90
2019-03-23T04:00:28.973Z,6.70
2019-03-23T04:02:57.381Z,6.40
2019-03-23T04:05:25.819Z,7.10
2019-03-23T04:07:54.247Z,6.17
2019-03-23T04:10:22.663Z,6.63
2019-03-23T04:12:51.080Z,6.33
2019-03-23T04:15:19.509Z,5.97
2019-03-23T04:17:47.929Z,6.73
2019-03-23T04:20:16.495Z,7.90
2019-03-23T04:22:44.907Z,6.67
2019-03-23T04:25:13.337Z,7.40
2019-03-23T04:27:41.751Z,5.80
2019-03-23T04:30:11.946Z,6.70
2019-03-23T04:32:40.453Z,6.70
2019-03-23T04:35:09.224Z,6.47
2019-03-23T04:37:37.637Z,6.73
2019-03-23T04:40:10.971Z,7.43
2019-03-23T04:42:39.380Z,8.20
2019-03-23T04:45:09.241Z,8.57
2019-03-23T04:47:38.010Z,8.10
2019-03-23T04:50:09.283Z,8.07
2019-03-23T04:52:37.798Z,7.40
2019-03-23T04:55:13.662Z,7.67
2019-03-23T04:57:42.321Z,7.33
2019-03-23T05:00:18.676Z,7.10
2019-03-23T05:02:48.011Z,7.33
2019-03-23T05:05:16.437Z,6.87
2019-03-23T05:07:44.849Z,6.80
2019-03-23T05:10:13.431Z,6.50
2019-03-23T05:12:41.847Z,6.67
2019-03-23T05:15:10.438Z,7.03
2019-03-23T05:17:38.890Z,6.80
2019-03-23T05:20:09.172Z,6.70
2019-03-23T05:22:37.887Z,7.10
2019-03-23T05:25:08.939Z,6.67
2019-03-23T05:27:37.548Z,6.63
2019-03-23T05:30:08.944Z,6.17
2019-03-23T05:32:37.365Z,6.20
2019-03-23T05:35:06.826Z,6.13
2019-03-23T05:37:35.245Z,5.60
2019-03-23T05:40:05.593Z,5.50
2019-03-23T05:42:34.544Z,4.80
2019-03-23T05:45:07.514Z,5.33
2019-03-23T05:47:38.245Z,5.27
2019-03-23T05:53:42.211Z,4.97
2019-03-23T06:35:12.091Z,5.17
2019-03-23T06:37:42.133Z,4.67
2019-03-23T06:40:12.789Z,4.00
2019-03-23T06:42:43.997Z,4.00
2019-03-23T06:45:14.392Z,3.30
2019-03-23T06:47:51.416Z,3.53
2019-03-23T06:50:26.457Z,3.10
2019-03-23T06:52:54.868Z,3.23
2019-03-23T06:55:28.820Z,3.43
2019-03-23T06:58:00.182Z,3.47
2019-03-23T07:00:33.157Z,3.17
2019-03-23T07:03:03.205Z,3.73
2019-03-23T07:05:37.846Z,4.20
2019-03-23T07:08:08.677Z,4.03
2019-03-23T07:10:37.095Z,4.10
2019-03-23T07:13:09.918Z,4.33
2019-03-23T07:15:38.341Z,4.53
2019-03-23T07:18:08.393Z,3.47
2019-03-23T07:20:40.347Z,3.90
2019-03-23T07:23:11.534Z,3.80
2019-03-23T07:25:40.560Z,3.77
2019-03-23T07:28:17.962Z,3.60
2019-03-23T07:30:48.025Z,3.90
2019-03-23T07:33:16.446Z,3.83
2019-03-23T07:35:47.891Z,3.70
2019-03-23T07:38:19.273Z,4.23
2019-03-23T07:40:56.661Z,4.57
2019-03-23T07:43:30.949Z,3.77
2019-03-23T07:46:03.475Z,4.23
2019-03-23T07:48:33.525Z,4.37
2019-03-23T07:51:01.945Z,4.40
2019-03-23T07:53:34.854Z,4.67
2019-03-23T07:56:06.297Z,6.30
2019-03-23T07:58:37.421Z,6.40
2019-03-23T08:01:05.844Z,6.07
2019-03-23T08:03:37.165Z,6.27
2019-03-23T08:06:07.389Z,6.40
2019-03-23T08:08:44.234Z,6.97
2019-03-23T08:11:12.657Z,8.80
2019-03-23T08:13:41.079Z,7.50
2019-03-23T08:16:13.785Z,6.90
2019-03-23T08:18:42.192Z,7.77
2019-03-23T08:21:13.297Z,7.97
2019-03-23T08:23:46.099Z,7.43
2019-03-23T08:26:18.841Z,8.50
2019-03-23T08:28:47.259Z,9.30
2019-03-23T08:31:15.674Z,10.67
2019-03-23T08:33:48.407Z,10.20
2019-03-23T08:36:25.864Z,11.47
2019-03-23T08:38:54.300Z,10.63
2019-03-23T08:41:22.720Z,10.23
2019-03-23T08:43:52.124Z,11.07
2019-03-23T08:46:22.177Z,10.90
2019-03-23T08:48:50.613Z,10.80
2019-03-23T08:51:21.889Z,10.80
2019-03-23T08:53:53.300Z,10.97
2019-03-23T08:56:23.361Z,9.87
2019-03-23T08:58:55.974Z,10.30
2019-03-23T09:01:27.384Z,11.57
2019-03-23T09:04:01.797Z,11.10
2019-03-23T09:06:30.222Z,12.33
2019-03-23T09:09:06.017Z,11.73
2019-03-23T09:11:34.432Z,11.80
2019-03-23T09:14:06.885Z,13.80
2019-03-23T09:16:35.275Z,14.47
2019-03-23T09:19:13.817Z,14.17
2019-03-23T09:21:48.016Z,15.60
2019-03-23T09:24:19.106Z,15.63
2019-03-23T09:26:51.228Z,16.67
2019-03-23T09:29:21.293Z,15.37
2019-03-23T09:31:52.360Z,15.57
2019-03-23T09:34:22.431Z,16.50
2019-03-23T09:36:50.850Z,16.83
2019-03-23T09:39:20.817Z,16.33
2019-03-23T09:41:49.238Z,16.77
2019-03-23T09:44:17.669Z,17.70
2019-03-23T09:46:48.878Z,15.90
2019-03-23T09:49:23.144Z,20.77
2019-03-23T09:51:56.138Z,17.27
2019-03-23T09:54:24.577Z,17.87
2019-03-23T09:56:59.603Z,19.23
2019-03-23T09:59:29.793Z,16.57
2019-03-23T10:02:02.541Z,21.23
2019-03-23T10:04:32.614Z,23.23
2019-03-23T10:07:03.679Z,20.93
2019-03-23T10:09:33.739Z,20.30
2019-03-23T10:12:06.861Z,19.23
2019-03-23T10:14:35.293Z,19.07
2019-03-23T10:17:18.314Z,19.57
2019-03-23T10:19:49.452Z,18.10
2019-03-23T10:22:19.508Z,20.17
2019-03-23T10:24:57.562Z,21.70
2019-03-23T10:27:25.986Z,19.70
2019-03-23T10:29:58.746Z,23.50
2019-03-23T10:32:32.762Z,21.07
2019-03-23T10:35:02.830Z,21.43
2019-03-23T10:37:32.890Z,22.50
2019-03-23T10:40:02.969Z,21.00
2019-03-23T10:42:38.593Z,21.70
2019-03-23T10:45:15.297Z,21.63
2019-03-23T10:47:46.511Z,19.60
2019-03-23T10:50:21.133Z,20.87
2019-03-23T10:52:51.191Z,20.30
2019-03-23T10:55:21.265Z,20.30
2019-03-23T10:57:55.324Z,18.13
2019-03-23T11:00:29.296Z,18.23
2019-03-23T11:02:57.721Z,19.00
2019-03-23T11:05:26.957Z,19.37
2019-03-23T11:08:13.865Z,18.03
2019-03-23T11:10:30.449Z,19.17
2019-03-23T11:12:58.870Z,20.27
2019-03-23T11:15:30.285Z,18.83
2019-03-23T11:18:04.580Z,18.53
2019-03-23T11:20:33.009Z,20.27
2019-03-23T11:23:08.668Z,18.80
2019-03-23T11:25:37.098Z,17.10
2019-03-23T11:28:05.528Z,17.10
2019-03-23T11:30:41.331Z,17.40
2019-03-23T11:33:15.376Z,16.90
2019-03-23T11:35:57.420Z,17.20
2019-03-23T11:38:22.213Z,17.83
2019-03-23T11:40:55.244Z,18.97
2019-03-23T11:43:26.391Z,17.93
2019-03-23T11:45:57.485Z,16.73
2019-03-23T11:48:38.857Z,16.80
2019-03-23T11:51:12.791Z,18.30
2019-03-23T11:53:44.220Z,16.97
2019-03-23T11:56:17.584Z,17.13
2019-03-23T11:58:47.639Z,17.10
2019-03-23T12:01:24.748Z,18.07
2019-03-23T12:04:01.926Z,18.93
2019-03-23T12:06:31.994Z,18.27
2019-03-23T12:09:12.549Z,19.13
2019-03-23T12:11:42.609Z,17.80
2019-03-23T12:14:14.201Z,17.77
2019-03-23T12:16:46.137Z,16.80
2019-03-23T12:19:17.233Z,16.73
2019-03-23T12:21:45.661Z,17.40
2019-03-23T12:24:17.013Z,17.03
2019-03-23T12:26:45.446Z,18.03
2019-03-23T12:29:16.790Z,17.27
2019-03-23T12:31:54.004Z,16.67
2019-03-23T12:34:24.065Z,16.87
2019-03-23T12:37:05.300Z,16.57
2019-03-23T12:39:35.221Z,16.67
2019-03-23T12:42:09.161Z,16.77
2019-03-23T12:44:40.260Z,15.80
2019-03-23T12:47:08.945Z,17.37
2019-03-23T12:49:41.761Z,16.97
2019-03-23T12:52:11.837Z,16.50
2019-03-23T12:54:54.649Z,17.10
2019-03-23T12:57:27.473Z,16.67
2019-03-23T12:59:59.122Z,17.40
2019-03-23T13:02:27.561Z,16.90
2019-03-23T13:05:08.037Z,15.80
2019-03-23T13:07:37.348Z,16.70
2019-03-23T13:10:10.153Z,16.40
2019-03-23T13:12:42.937Z,17.70
2019-03-23T13:15:15.695Z,19.10
2019-03-23T13:17:44.196Z,16.57
2019-03-23T13:20:22.686Z,29.27
2019-03-23T13:22:54.133Z,49.77
2019-03-23T13:25:37.018Z,18.13
2019-03-23T13:28:09.025Z,19.07
2019-03-23T13:30:40.169Z,17.77
2019-03-23T13:33:11.581Z,19.77
2019-03-23T13:35:41.641Z,18.57
2019-03-23T13:38:11.650Z,19.77
2019-03-23T13:40:42.784Z,19.37
2019-03-23T13:43:14.768Z,19.63
2019-03-23T13:45:43.166Z,17.80
2019-03-23T13:48:12.049Z,18.83
2019-03-23T13:50:43.766Z,18.57
2019-03-23T13:53:20.833Z,18.67
2019-03-23T13:55:49.248Z,19.27
2019-03-23T13:58:22.222Z,18.53
2019-03-23T14:00:59.399Z,17.93
2019-03-23T14:03:28.901Z,17.30
2019-03-23T14:06:04.925Z,16.87
2019-03-23T14:08:37.965Z,17.27
2019-03-23T14:11:06.399Z,17.30
2019-03-23T14:13:40.245Z,19.27
2019-03-23T14:16:08.665Z,17.37
2019-03-23T14:18:41.443Z,18.10
2019-03-23T14:21:15.883Z,18.70
2019-03-23T14:23:46.033Z,17.13
2019-03-23T14:26:16.447Z,17.67
2019-03-23T14:28:47.295Z,16.43
2019-03-23T14:31:20.261Z,16.20
2019-03-23T14:33:51.396Z,17.00
2019-03-23T14:36:24.002Z,16.67
2019-03-23T14:38:49.972Z,16.20
2019-03-23T14:41:23.777Z,16.93
2019-03-23T14:43:52.213Z,16.10
2019-03-23T14:46:20.977Z,16.73
2019-03-23T14:48:54.934Z,16.30
2019-03-23T14:51:32.221Z,16.40
2019-03-23T14:54:04.965Z,17.93
2019-03-23T14:56:39.149Z,17.47
2019-03-23T14:59:10.484Z,16.57
2019-03-23T15:01:41.588Z,18.03
2019-03-23T15:04:22.012Z,18.20
2019-03-23T15:06:59.303Z,16.23
2019-03-23T15:09:37.270Z,17.10
2019-03-23T15:12:14.946Z,18.47
2019-03-23T15:14:41.564Z,18.80
2019-03-23T15:17:12.877Z,19.57
2019-03-23T15:19:41.304Z,18.60
2019-03-23T15:22:12.513Z,19.27
2019-03-23T15:24:44.145Z,20.83
2019-03-23T15:27:15.193Z,21.77
2019-03-23T15:29:49.330Z,20.13
2019-03-23T15:32:20.704Z,24.00
2019-03-23T15:34:53.065Z,22.03
2019-03-23T15:37:27.259Z,20.50
2019-03-23T15:40:01.493Z,20.80
2019-03-23T15:42:39.235Z,20.77
2019-03-23T15:45:13.293Z,23.13
2019-03-23T15:47:55.009Z,21.57
2019-03-23T15:50:28.425Z,21.83
2019-03-23T15:53:03.095Z,21.63
2019-03-23T15:55:33.219Z,20.03
2019-03-23T15:58:01.628Z,21.33
2019-03-23T16:00:30.054Z,20.70
2019-03-23T16:03:06.056Z,20.10
2019-03-23T16:05:34.493Z,21.10
2019-03-23T16:08:06.267Z,21.17
2019-03-23T16:10:34.695Z,20.33
2019-03-23T16:13:06.022Z,21.13
2019-03-23T16:15:36.328Z,21.00
2019-03-23T16:18:08.026Z,22.13
2019-03-23T16:20:38.433Z,21.97
2019-03-23T16:23:18.711Z,21.17
2019-03-23T16:25:47.393Z,22.50
2019-03-23T16:28:24.739Z,20.97
2019-03-23T16:30:54.792Z,19.93
2019-03-23T16:33:28.884Z,20.13
2019-03-23T16:36:00.024Z,20.37
2019-03-23T16:38:37.354Z,19.87
2019-03-23T16:41:08.853Z,18.53
2019-03-23T16:43:37.288Z,19.60
2019-03-23T16:46:10.812Z,19.60
2019-03-23T16:48:42.522Z,19.23
2019-03-23T16:51:13.977Z,18.00
2019-03-23T16:53:46.099Z,16.47
2019-03-23T16:56:17.301Z,16.77
2019-03-23T16:58:51.767Z,16.40
2019-03-23T17:01:23.485Z,16.60
2019-03-23T17:03:55.817Z,15.27
2019-03-23T17:06:24.229Z,15.50
2019-03-23T17:08:58.708Z,14.33
2019-03-23T17:11:29.778Z,13.17
2019-03-23T17:13:59.754Z,12.70
2019-03-23T17:16:32.814Z,17.80
2019-03-23T17:19:04.293Z,11.97
2019-03-23T17:21:35.701Z,12.90
2019-03-23T17:24:10.821Z,15.20
2019-03-23T17:26:42.085Z,23.77
2019-03-23T17:29:10.506Z,24.63
2019-03-23T17:31:46.602Z,27.77
2019-03-23T17:34:17.801Z,26.50
2019-03-23T17:36:49.246Z,20.40
2019-03-23T17:39:20.673Z,18.73
2019-03-23T17:41:53.792Z,17.53
2019-03-23T17:44:22.220Z,15.87
2019-03-23T17:46:56.569Z,19.10
2019-03-23T17:49:27.688Z,26.73
2019-03-23T17:51:59.265Z,26.23
2019-03-23T17:54:29.005Z,33.30
2019-03-23T17:57:04.713Z,24.83
2019-03-23T17:59:37.394Z,24.97
2019-03-23T18:02:09.212Z,19.90
2019-03-23T18:04:37.628Z,16.60
2019-03-23T18:07:17.564Z,15.60
2019-03-23T18:09:48.700Z,15.33
2019-03-23T18:12:29.351Z,16.07
2019-03-23T18:14:57.365Z,16.57
2019-03-23T18:17:32.017Z,16.50
2019-03-23T18:20:00.442Z,13.73
2019-03-23T18:22:31.565Z,10.03
2019-03-23T18:25:09.760Z,13.17
2019-03-23T18:27:39.721Z,11.83
2019-03-23T18:30:25.320Z,14.73
2019-03-23T18:32:56.073Z,13.73
2019-03-23T18:35:24.508Z,14.23
2019-03-23T18:37:55.605Z,14.53
2019-03-23T18:40:24.892Z,16.27
2019-03-23T18:42:59.449Z,15.23
2019-03-23T18:45:32.409Z,15.53
2019-03-23T18:48:00.846Z,14.80
2019-03-23T18:50:29.268Z,17.63
2019-03-23T18:52:57.692Z,16.33
2019-03-23T18:55:28.973Z,19.77
2019-03-23T18:57:58.020Z,18.73
2019-03-23T19:00:42.345Z,21.33
2019-03-23T19:03:11.278Z,22.93
2019-03-23T19:05:39.870Z,22.90
2019-03-23T19:08:11.815Z,21.83
2019-03-23T19:10:40.170Z,23.47
2019-03-23T19:13:08.956Z,22.27
2019-03-23T19:15:46.208Z,22.10
2019-03-23T19:18:14.781Z,22.83
2019-03-23T19:20:49.141Z,42.53
2019-03-23T19:23:21.513Z,41.73
2019-03-23T19:25:52.605Z,51.60
2019-03-23T19:28:23.717Z,51.60
2019-03-23T19:30:58.345Z,52.03
2019-03-23T19:33:29.737Z,51.00
2019-03-23T19:36:03.632Z,53.50
2019-03-23T19:38:40.130Z,56.23
2019-03-23T19:41:12.977Z,55.17
2019-03-23T19:43:48.873Z,52.40
2019-03-23T19:46:11.549Z,54.97
2019-03-23T19:48:42.941Z,57.37
2019-03-23T19:51:12.997Z,54.70
2019-03-23T19:53:41.429Z,48.80
2019-03-23T19:56:10.188Z,46.20
2019-03-23T19:58:38.629Z,46.43
2019-03-23T20:01:08.621Z,44.97
2019-03-23T20:03:40.237Z,42.97
2019-03-23T20:06:08.645Z,41.17
2019-03-23T20:08:38.017Z,40.60
2019-03-23T20:11:15.130Z,39.57
2019-03-23T20:13:45.261Z,40.10
2019-03-23T20:16:13.996Z,38.40
2019-03-23T20:18:50.676Z,39.93
2019-03-23T20:21:20.771Z,38.70
2019-03-23T20:23:51.233Z,39.47
2019-03-23T20:26:19.324Z,39.27
2019-03-23T20:28:47.823Z,39.57
2019-03-23T20:31:19.055Z,41.00
2019-03-23T20:33:50.129Z,40.40
2019-03-23T20:36:18.561Z,41.53
2019-03-23T20:38:48.497Z,39.70
2019-03-23T20:41:16.892Z,40.60
2019-03-23T20:43:48.223Z,39.97
2019-03-23T20:46:16.640Z,40.43
2019-03-23T20:49:13.157Z,41.27
2019-03-23T20:51:24.069Z,39.70
2019-03-23T20:53:56.137Z,39.97
2019-03-23T20:56:26.185Z,39.23
2019-03-23T20:58:55.406Z,42.73
2019-03-23T21:01:23.852Z,40.53
2019-03-23T21:03:55.133Z,38.80
2019-03-23T21:06:26.500Z,40.70
2019-03-23T21:08:54.941Z,41.87
2019-03-23T21:11:23.381Z,44.00
2019-03-23T21:13:58.100Z,45.83
2019-03-23T21:16:26.513Z,45.43
2019-03-23T21:19:01.176Z,44.63
2019-03-23T21:21:29.592Z,47.33
2019-03-23T21:24:01.376Z,45.17
2019-03-23T21:26:29.791Z,46.90
2019-03-23T21:29:01.117Z,47.23
2019-03-23T21:31:37.121Z,46.90
2019-03-23T21:34:03.100Z,47.37
2019-03-23T21:36:33.123Z,44.13
2019-03-23T21:39:03.538Z,47.80
2019-03-23T21:41:40.148Z,43.97
2019-03-23T21:44:08.584Z,45.33
2019-03-23T21:46:45.802Z,47.87
2019-03-23T21:49:17.532Z,45.20
2019-03-23T21:51:56.780Z,44.23
2019-03-23T21:54:25.208Z,44.50
2019-03-23T21:56:55.464Z,40.27
2019-03-23T21:59:29.752Z,42.60
2019-03-23T22:02:03.886Z,42.73
2019-03-23T22:04:39.797Z,40.67
2019-03-23T22:07:13.861Z,41.43
2019-03-23T22:09:45.111Z,41.37
2019-03-23T22:12:17.121Z,40.60
2019-03-23T22:14:51.884Z,40.10
2019-03-23T22:17:20.322Z,40.83
2019-03-23T22:19:50.371Z,40.33
2019-03-23T22:22:21.518Z,41.33
2019-03-23T22:24:56.058Z,38.67
2019-03-23T22:27:32.572Z,39.47
2019-03-23T22:30:13.997Z,40.23
2019-03-23T22:32:49.792Z,41.67
2019-03-23T22:35:19.874Z,37.57
2019-03-23T22:38:01.421Z,41.93
2019-03-23T22:40:29.842Z,38.40
2019-03-23T22:42:58.254Z,39.27
2019-03-23T22:45:26.674Z,44.27
2019-03-23T22:47:55.093Z,40.03
2019-03-23T22:50:32.265Z,40.97
2019-03-23T22:53:00.879Z,40.00
2019-03-23T22:55:37.613Z,38.73
2019-03-23T22:58:14.265Z,40.40
2019-03-23T23:00:48.761Z,38.67
2019-03-23T23:03:17.297Z,38.33
2019-03-23T23:05:54.128Z,40.07
2019-03-23T23:08:25.621Z,39.40
2019-03-23T23:10:57.215Z,38.83
2019-03-23T23:13:27.265Z,39.33
2019-03-23T23:15:56.767Z,41.07
2019-03-23T23:18:31.107Z,48.07
2019-03-23T23:20:59.824Z,42.03
2019-03-23T23:23:29.876Z,39.50
2019-03-23T23:26:00.781Z,40.23
2019-03-23T23:28:45.701Z,38.97
2019-03-23T23:31:16.854Z,40.50
2019-03-23T23:33:45.281Z,39.73
2019-03-23T23:36:14.700Z,42.90
2019-03-23T23:38:52.620Z,40.47
2019-03-23T23:41:21.400Z,39.53
2019-03-23T23:43:51.549Z,37.80
2019-03-23T23:46:20.250Z,38.37
2019-03-23T23:48:51.577Z,39.30
2019-03-23T23:51:23.649Z,40.23
2019-03-23T23:53:52.072Z,40.00
2019-03-23T23:56:23.168Z,41.67
2019-03-23T23:58:51.586Z,41.07
